Terminal Aerodrome Forecast
Issued by NWS

Home | Current Version | Previous Version | Text Only | Print | Product List | Glossary On
Versions: 1 2 3 4 5 6 7 8 9 10 11 12 13 14 15 16 17 18 19 20 21 22 23 24 25
000
FTUS43 KAPX 271120
TAFAPN
TAF
KAPN 271120Z 2712/2812 21008G16KT P6SM SCT020 BKN060 WS020/23030KT
     FM271400 21010G18KT P6SM SCT040
     FM271800 23013G23KT P6SM BKN050
     FM280000 26008G16KT P6SM OVC025
     FM280500 26005KT P6SM BKN070=

USA.gov is the U.S. government's official web portal to all federal, state and local government web resources and services.